Nearby METAR Reports

 

KPBI - West Palm Beach, Florida, USA
Distance from station: NNE 9mi, 14km
Updated: Tue, 14-Aug-2018 7:53pm EDT
Partly cloudy
Partly cloudy
 Wind from ESE
Wind: ESE 8 mph , 13 km/h
Temperature: 82°F , 28°C
Heat Index: 87°F , 31°C
Dew Point: 73°F , 23°C
Humidity: 74%
Barometer: 30.05 inHg , 1017.6 hPa
Clouds: Partly cloudy
Visibility: 10 miles , 16 km
Cloud details: Partly cloudy 3000 ft
Partly cloudy 20000 ft
Partly cloudy 25000 ft
2018/08/14 23:53 KPBI 142353Z 12007KT 10SM SCT030 SCT200 SCT250 28/23 A3005 RMK AO2 SLP176 T02830233 10294 20278 53004 $
KBCT - Boca Raton, Florida, USA
Distance from station: SSE 13mi, 21km
Updated: Tue, 14-Aug-2018 7:59pm EDT
Clear
Clear
 Wind from SE
Wind: SE 6 mph , 9 km/h
Temperature: 84°F , 29°C
Heat Index: 90°F , 32°C
Dew Point: 73°F , 23°C
Humidity: 70%
Barometer: 30.05 inHg , 1017.6 hPa
Clouds: Clear
Visibility: 10 miles , 16 km
2018/08/14 23:59 KBCT 142359Z 14005KT 10SM SKC 29/23 A3005
 
KPMP - Pompano Beach, Florida, USA
Distance from station: S 22mi, 36km
Updated: Tue, 14-Aug-2018 7:53pm EDT
Few Clouds
Few Clouds
 Wind from ESE
Wind: ESE 9 mph , 15 km/h
Temperature: 86°F , 30°C
Heat Index: 93°F , 34°C
Dew Point: 73°F , 23°C
Humidity: 66%
Barometer: 30.05 inHg , 1017.6 hPa
Clouds: Few Clouds
Visibility: 10 miles , 16 km
Cloud details: Few Clouds 3000 ft
2018/08/14 23:53 KPMP 142353Z 11008KT 10SM FEW030 30/23 A3005 RMK AO2 SLP175 T03000233 10322 20300 53005
KFXE - Ft Lauderd/Exec, Florida, USA
Distance from station: S 25mi, 41km
Updated: Tue, 14-Aug-2018 7:53pm EDT
Few Clouds
Few Clouds
 Wind from E
Wind: E 10 mph , 17 km/h
Temperature: 84°F , 29°C
Heat Index: 92°F , 33°C
Dew Point: 75°F , 24°C
Humidity: 74%
Barometer: 30.04 inHg , 1017.3 hPa
Clouds: Few Clouds
Visibility: 10 miles , 16 km
Cloud details: Few Clouds 3200 ft
2018/08/14 23:53 KFXE 142353Z 10009KT 10SM FEW032 29/24 A3004 RMK AO2 SLP175 T02940239 10328 20294 53005
 
KFLL - Ft Lauderd/Holly, Florida, USA
Distance from station: S 35mi, 56km
Updated: Tue, 14-Aug-2018 7:53pm EDT
Mostly cloudy
Mostly cloudy
 Wind from ESE
Wind: ESE 9 mph , 15 km/h
Temperature: 84°F , 29°C
Heat Index: 92°F , 33°C
Dew Point: 75°F , 24°C
Humidity: 74%
Barometer: 30.04 inHg , 1017.3 hPa
Clouds: Mostly cloudy
Visibility: 10 miles , 16 km
Cloud details: Partly cloudy 3100 ft
Partly cloudy 9000 ft
Partly cloudy 16000 ft
Mostly cloudy 25000 ft
2018/08/14 23:53 KFLL 142353Z 11008KT 10SM SCT031 SCT090 SCT160 BKN250 29/24 A3004 RMK AO2 SLP172 T02940239 10317 20294 53006
KHWO - Hollywood, Florida, USA
Distance from station: S 39mi, 64km
Updated: Tue, 14-Aug-2018 7:53pm EDT
Partly cloudy
Partly cloudy
 Wind from E
Wind: E 8 mph , 13 km/h
Temperature: 86°F , 30°C
Heat Index: 93°F , 34°C
Dew Point: 73°F , 23°C
Humidity: 66%
Barometer: 30.06 inHg , 1017.9 hPa
Clouds: Partly cloudy
Visibility: 10 miles , 16 km
Cloud details: Partly cloudy 3100 ft
2018/08/14 23:53 KHWO 142353Z 10007KT 10SM SCT031 30/23 A3006 RMK AO2 SLP179 T03000233 10333 20300 53008
 
KSUA - Stuart/Witham, Florida, USA
Distance from station: N 43mi, 69km
Updated: Tue, 14-Aug-2018 8:47pm EDT
Few Clouds
Few Clouds
 Wind from ESE
Wind: ESE 6 mph , 9 km/h
Temperature: 79°F , 26°C
Dew Point: 75°F , 24°C
Humidity: 89%
Barometer: 30.08 inHg , 1018.6 hPa
Clouds: Few Clouds
Visibility: 7 miles , 11 km
Cloud details: Few Clouds 2500 ft
2018/08/15 00:47 KSUA 150047Z 11005KT 7SM FEW025 26/24 A3008
KOPF - Miami/Opa Locka, Florida, USA
Distance from station: S 46mi, 73km
Updated: Tue, 14-Aug-2018 7:53pm EDT
Few Clouds
Few Clouds
 Wind from E
Wind: E 8 mph , 13 km/h
Temperature: 84°F , 29°C
Heat Index: 90°F , 32°C
Dew Point: 73°F , 23°C
Humidity: 70%
Barometer: 30.05 inHg , 1017.6 hPa
Clouds: Few Clouds
Visibility: 10 miles , 16 km
Cloud details: Few Clouds 3200 ft
2018/08/14 23:53 KOPF 142353Z 10007KT 10SM FEW032 29/23 A3005 RMK AO2 SLP178 T02890228 10333 20289 53008
 
KMIA - Miami, Florida, USA
Distance from station: S 54mi, 86km
Updated: Tue, 14-Aug-2018 7:53pm EDT
Mostly cloudy
Mostly cloudy
 Wind from ESE
Wind: ESE 7 mph , 11 km/h
Temperature: 84°F , 29°C
Heat Index: 90°F , 32°C
Dew Point: 73°F , 23°C
Humidity: 70%
Barometer: 30.05 inHg , 1017.6 hPa
Clouds: Mostly cloudy
Visibility: 10 miles , 16 km
Cloud details: Partly cloudy 3000 ft
Partly cloudy 13000 ft
Mostly cloudy 25000 ft
2018/08/14 23:53 KMIA 142353Z 11006KT 10SM SCT030 SCT130 BKN250 29/23 A3005 RMK AO2 SLP174 CB DSNT W T02890233 10322 20289 53007
KOBE - Okeechobee Cty, Florida, USA
Distance from station: NW 64mi, 104km
Updated: Tue, 14-Aug-2018 8:35pm EDT
Clear
Clear
 Wind from WSW
Wind: WSW 3 mph , 6 km/h
Temperature: 81°F , 27°C
Heat Index: 86°F , 30°C
Dew Point: 73°F , 23°C
Humidity: 79%
Barometer: 30.06 inHg , 1017.9 hPa
Clouds: Clear
Visibility: 10 miles , 16 km
2018/08/15 00:35 KOBE 150035Z AUTO 24003KT 10SM CLR 27/23 A3006 RMK AO2
 
KFPR - Fort Pierce, Florida, USA
Distance from station: NNW 66mi, 106km
Updated: Tue, 14-Aug-2018 7:53pm EDT
Clear
Clear
 Wind from SSE
Wind: SSE 6 mph , 9 km/h
Temperature: 81°F , 27°C
Heat Index: 87°F , 31°C
Dew Point: 75°F , 24°C
Humidity: 84%
Barometer: 30.06 inHg , 1017.9 hPa
Clouds: Clear
Visibility: 10 miles , 16 km
2018/08/14 23:53 KFPR 142353Z 15005KT 10SM CLR 27/24 A3006 RMK AO2 SLP178 T02720244 10311 20272 53008
KTMB - Miami/Tamiami, Florida, USA
Distance from station: SSW 66mi, 106km
Updated: Tue, 14-Aug-2018 7:53pm EDT
Few Clouds
Few Clouds
 Wind from E
Wind: E 7 mph , 11 km/h
Temperature: 82°F , 28°C
Heat Index: 87°F , 31°C
Dew Point: 73°F , 23°C
Humidity: 74%
Barometer: 30.05 inHg , 1017.6 hPa
Clouds: Few Clouds
Visibility: 10 miles , 16 km
Cloud details: Few Clouds 3000 ft
2018/08/14 23:53 KTMB 142353Z 09006KT 10SM FEW030 28/23 A3005 RMK AO2 SLP174 T02830233 10328 20283 53007
 
KVRB - Vero Beach, Florida, USA
Distance from station: NNW 76mi, 123km
Updated: Tue, 14-Aug-2018 7:53pm EDT
Clear
Clear
 Wind from SSE
Wind: SSE 7 mph , 11 km/h
Temperature: 82°F , 28°C
Heat Index: 89°F , 32°C
Dew Point: 75°F , 24°C
Humidity: 79%
Barometer: 30.06 inHg , 1017.9 hPa
Clouds: Clear
Visibility: 10 miles , 16 km
2018/08/14 23:53 KVRB 142353Z 16006KT 10SM CLR 28/24 A3006 RMK AO2 SLP180 T02780239 10328 20278 53008
KHST - Homestead Afb, Florida, USA
Distance from station: S 77mi, 124km
Updated: Tue, 14-Aug-2018 7:56pm EDT
Few Clouds
Few Clouds
 Wind from ENE
Wind: ENE 3 mph , 6 km/h
Temperature: 84°F , 29°C
Heat Index: 92°F , 33°C
Dew Point: 75°F , 24°C
Humidity: 74%
Barometer: 30.04 inHg , 1017.3 hPa
Clouds: Few Clouds
Visibility: 10 miles , 16 km
Cloud details: Few Clouds 2900 ft
2018/08/14 23:56 KHST 142356Z AUTO 07003KT 10SM FEW029 29/24 A3004 RMK AO2 SLP176 T02880237 10323 20288 53006 FZRANO VISNO RWY24 $
 
KIMM - Immokalee, Florida, USA
Distance from station: W 77mi, 124km
Updated: Tue, 14-Aug-2018 8:35pm EDT

 Wind from calm
Wind: Calm
Temperature: 77°F , 25°C
Dew Point: 75°F , 24°C
Humidity: 94%
Barometer: 30.05 inHg , 1017.6 hPa
Visibility: 10 miles , 16 km
2018/08/15 00:35 KIMM 150035Z AUTO 00000KT 10SM 25/24 A3005 RMK A01
MYGF - Freeport Intl A, Bahamas
Distance from station: E 90mi, 145km
Updated: Tue, 14-Aug-2018 7:00pm EDT
NOT Current
Mostly cloudy
Mostly cloudy
 Wind from SSE
Wind: SSE 3 mph , 6 km/h
Temperature: 86°F , 30°C
Heat Index: 97°F , 36°C
Dew Point: 77°F , 25°C
Humidity: 75%
Barometer: 30.04 inHg , 1017.3 hPa
Clouds: Mostly cloudy
Visibility: 6 miles , 10 km
Cloud details: Few Clouds 2000 ft
Mostly cloudy 25000 ft
2018/08/14 23:00 MYGF 142300Z 15003KT 9999 FEW020TCU BKN250 30/25 A3004 RMK TCU DSNT NE-E
 
KSEF - Sebring, Florida, USA
Distance from station: NW 95mi, 153km
Updated: Tue, 14-Aug-2018 8:35pm EDT
Clear
Clear
 Wind from WNW
Wind: WNW 5 mph , 7 km/h
Temperature: 81°F , 27°C
Heat Index: 86°F , 30°C
Dew Point: 73°F , 23°C
Humidity: 79%
Barometer: 30.06 inHg , 1017.9 hPa
Clouds: Clear
Visibility: 10 miles , 16 km
2018/08/15 00:35 KSEF 150035Z AUTO 29004KT 10SM CLR 27/23 A3006 RMK AO2 T02670225
KRSW - Fort Myers, Florida, USA
Distance from station: W 98mi, 158km
Updated: Tue, 14-Aug-2018 7:53pm EDT
Clear
Clear
 Wind from calm
Wind: Calm
Temperature: 79°F , 26°C
Dew Point: 72°F , 22°C
Humidity: 79%
Barometer: 30.05 inHg , 1017.6 hPa
Clouds: Clear
Visibility: 10 miles , 16 km
2018/08/14 23:53 KRSW 142353Z 00000KT 10SM CLR 26/22 A3005 RMK AO2 SLP171 60004 T02610222 10328 20244 56002